Time;durP1;ratioP1;P1;durP2;ratioP2;P2;SDS_P1;SDS_P2;PMS_P1;PMS_P2;Temp;Humidity;BMP_temperature;BMP_pressure;BME280_temperature;BME280_humidity;BME280_pressure;Samples;Min_cycle;Max_cycle;Signal;HPM_P1;HPM_P2
2023/01/07 00:01:55;;;;;;;;;;;8.80;99.90;;;;;;5078346;28;1055;-68
2023/01/07 00:04:22;;;;;;;;;;;8.80;99.90;;;;;;5077766;28;1159;-68
2023/01/07 00:06:48;;;;;;;;;;;8.80;99.90;;;;;;5079410;28;1085;-68
2023/01/07 00:09:15;;;;;;;;;;;8.90;99.90;;;;;;5079461;28;1979;-68
2023/01/07 00:11:41;;;;;;;;;;;9.00;99.90;;;;;;5076868;28;1286;-68
2023/01/07 00:14:08;;;;;;;;;;;9.00;99.90;;;;;;5077225;28;1135;-68
2023/01/07 00:16:34;;;;;;;;;;;9.00;99.90;;;;;;5077680;28;961;-68
2023/01/07 00:19:01;;;;;;;;;;;9.10;99.90;;;;;;5077079;28;1008;-68
2023/01/07 00:21:27;;;;;;;;;;;9.10;99.90;;;;;;5077586;28;949;-68
2023/01/07 00:23:54;;;;;;;;;;;9.10;99.90;;;;;;5077456;28;1008;-68
2023/01/07 00:26:20;;;;;;;;;;;9.10;99.90;;;;;;5079214;28;961;-68
2023/01/07 00:28:47;;;;;;;;;;;9.20;99.90;;;;;;5062687;28;1989;-68
2023/01/07 00:31:14;;;;;;;;;;;9.20;99.90;;;;;;5081587;28;1071;-68
2023/01/07 00:33:50;;;;;;;;;;;9.20;99.90;;;;;;5046710;28;2079;-68
2023/01/07 00:36:16;;;;;;;;;;;9.30;99.90;;;;;;5081509;28;934;-68
2023/01/07 00:38:42;;;;;;;;;;;9.30;99.90;;;;;;5080308;28;1001;-68
2023/01/07 00:41:08;;;;;;;;;;;9.30;99.90;;;;;;5080768;28;1007;-68
2023/01/07 00:43:34;;;;;;;;;;;9.40;99.90;;;;;;5063178;28;1063;-68
2023/01/07 00:46:00;;;;;;;;;;;9.50;99.90;;;;;;5062567;28;1002;-68
2023/01/07 00:48:25;;;;;;;;;;;9.60;99.90;;;;;;5063141;28;1902;-68
2023/01/07 00:50:52;;;;;;;;;;;9.60;99.90;;;;;;5062613;28;1299;-68
2023/01/07 00:53:18;;;;;;;;;;;9.60;99.90;;;;;;5062122;28;1012;-68
2023/01/07 00:55:43;;;;;;;;;;;9.60;99.90;;;;;;5080670;28;1085;-68
2023/01/07 00:58:13;;;;;;;;;;;9.60;99.90;;;;;;5062072;28;1028;-68
2023/01/07 01:00:39;;;;;;;;;;;9.60;99.90;;;;;;5061631;28;1061;-68
2023/01/07 01:03:04;;;;;;;;;;;9.70;99.90;;;;;;5063101;28;1186;-69
2023/01/07 01:05:30;;;;;;;;;;;9.70;99.90;;;;;;5062857;28;1072;-68
2023/01/07 01:07:56;;;;;;;;;;;9.70;99.90;;;;;;5079303;28;1901;-68
2023/01/07 01:10:22;;;;;;;;;;;9.70;99.90;;;;;;5080985;28;1239;-69
2023/01/07 01:12:48;;;;;;;;;;;9.70;99.90;;;;;;5080417;28;1031;-68
2023/01/07 01:15:14;;;;;;;;;;;9.80;99.90;;;;;;5079574;28;1059;-68
2023/01/07 01:17:40;;;;;;;;;;;9.80;99.90;;;;;;5080377;28;981;-68
2023/01/07 01:20:07;;;;;;;;;;;9.80;99.90;;;;;;5062984;28;1013;-68
2023/01/07 01:22:33;;;;;;;;;;;9.70;99.90;;;;;;5079576;28;1044;-68
2023/01/07 01:24:58;;;;;;;;;;;9.70;99.90;;;;;;5079835;28;1227;-68
2023/01/07 01:27:24;;;;;;;;;;;9.80;99.90;;;;;;5080061;28;965;-67
2023/01/07 01:29:50;;;;;;;;;;;9.80;99.90;;;;;;5079614;28;1975;-68
2023/01/07 01:32:16;;;;;;;;;;;9.80;99.90;;;;;;5062687;28;1028;-68
2023/01/07 01:34:43;;;;;;;;;;;9.80;99.90;;;;;;5060597;28;932;-68
2023/01/07 01:37:09;;;;;;;;;;;9.80;99.90;;;;;;5061564;28;1062;-68
2023/01/07 01:39:35;;;;;;;;;;;9.80;99.90;;;;;;5079754;28;1033;-68
2023/01/07 01:42:01;;;;;;;;;;;9.80;99.90;;;;;;5078780;28;1016;-68
2023/01/07 01:44:32;;;;;;;;;;;9.90;99.90;;;;;;5062507;28;1036;-68
2023/01/07 01:46:58;;;;;;;;;;;9.90;99.90;;;;;;5062245;28;1036;-68
2023/01/07 01:49:26;;;;;;;;;;;9.90;99.90;;;;;;5060731;28;1906;-68
2023/01/07 01:51:58;;;;;;;;;;;9.90;99.90;;;;;;5062260;28;1242;-68
2023/01/07 01:54:24;;;;;;;;;;;9.90;99.90;;;;;;5062290;28;1037;-68
2023/01/07 01:56:53;;;;;;;;;;;9.90;99.90;;;;;;5060470;28;1346;-68
2023/01/07 01:59:21;;;;;;;;;;;9.90;99.90;;;;;;5061876;28;1009;-68
2023/01/07 02:01:47;;;;;;;;;;;9.90;99.90;;;;;;5061581;28;1064;-68
2023/01/07 02:04:17;;;;;;;;;;;9.90;99.90;;;;;;5061713;28;1143;-69
2023/01/07 02:06:47;;;;;;;;;;;9.90;99.90;;;;;;5061457;28;1071;-68
2023/01/07 02:09:12;;;;;;;;;;;9.90;99.90;;;;;;5060968;28;1918;-69
2023/01/07 02:11:41;;;;;;;;;;;9.90;99.90;;;;;;5060587;28;1020;-69
2023/01/07 02:14:15;;;;;;;;;;;9.90;99.90;;;;;;5079367;28;1027;-69
2023/01/07 02:16:41;;;;;;;;;;;9.90;99.90;;;;;;5061713;28;1032;-69
2023/01/07 02:19:16;;;;;;;;;;;9.90;99.90;;;;;;5059672;28;1012;-69
2023/01/07 02:22:00;;;;;;;;;;;9.90;99.90;;;;;;5061532;28;1139;-69
2023/01/07 02:24:44;;;;;;;;;;;9.90;99.90;;;;;;5060985;28;969;-69
2023/01/07 02:27:22;;;;;;;;;;;9.90;99.90;;;;;;5060132;28;1056;-69
2023/01/07 02:29:51;;;;;;;;;;;9.90;99.90;;;;;;5060852;28;1925;-69
2023/01/07 02:32:24;;;;;;;;;;;9.90;99.90;;;;;;5078459;28;1036;-69
2023/01/07 02:34:59;;;;;;;;;;;9.90;99.90;;;;;;5060173;28;1028;-69
2023/01/07 02:37:29;;;;;;;;;;;9.90;99.90;;;;;;5061073;28;1076;-69
2023/01/07 02:40:05;;;;;;;;;;;9.90;99.90;;;;;;5043720;28;1037;-69
2023/01/07 02:42:51;;;;;;;;;;;9.90;99.90;;;;;;5060404;28;1113;-69
2023/01/07 02:45:22;;;;;;;;;;;9.90;99.90;;;;;;5060473;28;1142;-69
2023/01/07 02:47:52;;;;;;;;;;;9.90;99.90;;;;;;5060268;28;1949;-69
2023/01/07 02:50:18;;;;;;;;;;;9.90;99.90;;;;;;5060004;28;1159;-69
2023/01/07 02:52:44;;;;;;;;;;;9.90;99.90;;;;;;5077467;28;1401;-69
2023/01/07 02:55:14;;;;;;;;;;;9.90;99.90;;;;;;5060397;28;1076;-69
2023/01/07 02:57:53;;;;;;;;;;;9.90;99.90;;;;;;5077891;28;1048;-69
2023/01/07 03:00:38;;;;;;;;;;;9.90;99.90;;;;;;5078642;28;1306;-69
2023/01/07 03:03:16;;;;;;;;;;;9.90;99.90;;;;;;5059622;28;1219;-69
2023/01/07 03:05:48;;;;;;;;;;;9.90;99.90;;;;;;5060132;28;1095;-69
2023/01/07 03:08:14;;;;;;;;;;;9.90;99.90;;;;;;5060330;28;1926;-69
2023/01/07 03:10:46;;;;;;;;;;;9.90;99.90;;;;;;5059291;28;1076;-69
2023/01/07 03:13:15;;;;;;;;;;;9.90;99.90;;;;;;5060032;28;1201;-69
2023/01/07 03:15:44;;;;;;;;;;;9.90;99.90;;;;;;5061453;28;1102;-69
2023/01/07 03:18:16;;;;;;;;;;;9.90;99.90;;;;;;5079200;28;1220;-69
2023/01/07 03:20:43;;;;;;;;;;;9.90;99.90;;;;;;5061112;28;1160;-69
2023/01/07 03:23:09;;;;;;;;;;;9.90;99.90;;;;;;5079131;28;1097;-69
2023/01/07 03:25:38;;;;;;;;;;;9.90;99.90;;;;;;5080816;28;1135;-69
2023/01/07 03:28:06;;;;;;;;;;;9.90;99.90;;;;;;5076905;28;1976;-69
2023/01/07 03:30:31;;;;;;;;;;;9.90;99.90;;;;;;5046730;28;1149;-69
2023/01/07 03:33:00;;;;;;;;;;;9.90;99.90;;;;;;5062947;28;1104;-69
2023/01/07 03:35:27;;;;;;;;;;;9.90;99.90;;;;;;5078294;28;1082;-69
2023/01/07 03:37:53;;;;;;;;;;;9.90;99.90;;;;;;5059764;28;1078;-69
2023/01/07 03:40:19;;;;;;;;;;;9.90;99.90;;;;;;5043066;28;1005;-69
2023/01/07 03:42:47;;;;;;;;;;;9.90;99.90;;;;;;5059387;28;1036;-69
2023/01/07 03:45:20;;;;;;;;;;;9.90;99.90;;;;;;5079115;28;1059;-69
2023/01/07 03:47:47;;;;;;;;;;;10.00;99.90;;;;;;5059391;28;1079;-69
2023/01/07 03:50:13;;;;;;;;;;;10.00;99.90;;;;;;5060207;28;1910;-69
2023/01/07 03:52:41;;;;;;;;;;;10.00;99.90;;;;;;5061069;28;1216;-69
2023/01/07 03:55:07;;;;;;;;;;;10.00;99.90;;;;;;5078115;28;1096;-69
2023/01/07 03:57:33;;;;;;;;;;;10.00;99.90;;;;;;5060281;28;1029;-69
2023/01/07 04:00:02;;;;;;;;;;;10.00;99.90;;;;;;5061564;28;1106;-69
2023/01/07 04:02:29;;;;;;;;;;;10.00;99.90;;;;;;5063534;28;1115;-69
2023/01/07 04:04:54;;;;;;;;;;;10.00;99.90;;;;;;5081786;28;1306;-69
2023/01/07 04:07:20;;;;;;;;;;;10.00;99.90;;;;;;5064102;28;1159;-69
2023/01/07 04:09:48;;;;;;;;;;;10.00;99.90;;;;;;5063464;28;1975;-69
2023/01/07 04:12:14;;;;;;;;;;;10.00;99.90;;;;;;5063454;28;1024;-69
2023/01/07 04:14:40;;;;;;;;;;;10.00;99.90;;;;;;5063388;28;1049;-69
2023/01/07 04:17:06;;;;;;;;;;;10.00;99.90;;;;;;5046227;28;1060;-69
2023/01/07 04:19:32;;;;;;;;;;;10.00;99.90;;;;;;5063185;28;1023;-69
2023/01/07 04:21:58;;;;;;;;;;;10.00;99.90;;;;;;5063379;28;979;-69
2023/01/07 04:24:23;;;;;;;;;;;10.00;99.90;;;;;;5062304;28;970;-69
2023/01/07 04:26:49;;;;;;;;;;;10.10;99.90;;;;;;5064945;28;981;-69
2023/01/07 04:29:16;;;;;;;;;;;10.10;99.90;;;;;;5064316;28;1981;-69
2023/01/07 04:31:42;;;;;;;;;;;10.10;99.90;;;;;;5063189;28;1101;-69
2023/01/07 04:34:08;;;;;;;;;;;10.10;99.90;;;;;;5064073;28;1144;-69
2023/01/07 04:36:34;;;;;;;;;;;10.10;99.90;;;;;;5063478;28;1087;-69
2023/01/07 04:39:00;;;;;;;;;;;10.10;99.90;;;;;;5061862;28;1059;-69
2023/01/07 04:41:26;;;;;;;;;;;10.10;99.90;;;;;;5064464;28;1142;-69
2023/01/07 04:43:52;;;;;;;;;;;10.10;99.90;;;;;;5063767;28;1020;-69
2023/01/07 04:46:18;;;;;;;;;;;10.20;99.90;;;;;;5080363;28;1024;-69
2023/01/07 04:48:43;;;;;;;;;;;10.10;99.90;;;;;;5062495;28;1914;-70
2023/01/07 04:51:09;;;;;;;;;;;10.20;99.90;;;;;;5064052;28;1211;-69
2023/01/07 04:53:35;;;;;;;;;;;10.10;99.90;;;;;;5062257;28;1046;-69
2023/01/07 04:56:01;;;;;;;;;;;10.20;99.90;;;;;;5064576;28;1309;-69
2023/01/07 04:58:28;;;;;;;;;;;10.10;99.90;;;;;;5065585;28;1147;-69
2023/01/07 05:00:57;;;;;;;;;;;10.10;99.90;;;;;;5063790;28;1036;-69
2023/01/07 05:03:24;;;;;;;;;;;10.10;99.90;;;;;;5063684;28;1283;-69
2023/01/07 05:05:50;;;;;;;;;;;10.10;99.90;;;;;;5044340;28;1287;-69
2023/01/07 05:08:17;;;;;;;;;;;10.10;99.90;;;;;;5045561;28;1914;-69
2023/01/07 05:10:43;;;;;;;;;;;10.10;99.90;;;;;;5062406;28;1123;-69
2023/01/07 05:13:16;;;;;;;;;;;10.00;99.90;;;;;;5061039;28;978;-69
2023/01/07 05:15:42;;;;;;;;;;;10.00;99.90;;;;;;5061996;28;1074;-69
2023/01/07 05:18:08;;;;;;;;;;;10.00;99.90;;;;;;5045409;28;1045;-69
2023/01/07 05:20:35;;;;;;;;;;;10.00;99.90;;;;;;5079200;28;953;-69
2023/01/07 05:23:02;;;;;;;;;;;10.00;99.90;;;;;;5045187;28;1043;-69
2023/01/07 05:25:28;;;;;;;;;;;10.00;99.90;;;;;;5062580;28;1021;-69
2023/01/07 05:27:53;;;;;;;;;;;10.00;99.90;;;;;;5061708;28;1905;-69
2023/01/07 05:30:22;;;;;;;;;;;10.00;99.90;;;;;;5046060;28;991;-69
2023/01/07 05:32:48;;;;;;;;;;;10.00;99.90;;;;;;5061348;28;1143;-69
2023/01/07 05:35:13;;;;;;;;;;;10.10;99.90;;;;;;5079576;28;1029;-69
2023/01/07 05:37:39;;;;;;;;;;;10.10;99.90;;;;;;5045722;28;1148;-69
2023/01/07 05:40:06;;;;;;;;;;;10.10;99.90;;;;;;5062329;28;1023;-69
2023/01/07 05:42:32;;;;;;;;;;;10.10;99.90;;;;;;5060539;28;1264;-69
2023/01/07 05:44:58;;;;;;;;;;;10.10;99.90;;;;;;5062547;28;1080;-69
2023/01/07 05:47:24;;;;;;;;;;;10.10;99.90;;;;;;5079797;28;1016;-69
2023/01/07 05:49:50;;;;;;;;;;;10.10;99.90;;;;;;5078724;28;1914;-70
2023/01/07 05:52:15;;;;;;;;;;;10.10;99.90;;;;;;5080587;28;1401;-69
2023/01/07 05:54:41;;;;;;;;;;;10.10;99.90;;;;;;5079641;28;966;-69
2023/01/07 05:57:06;;;;;;;;;;;10.10;99.90;;;;;;5079314;28;1197;-69
2023/01/07 05:59:33;;;;;;;;;;;10.10;99.90;;;;;;5060987;28;1063;-69
2023/01/07 06:01:59;;;;;;;;;;;10.00;99.90;;;;;;5060337;28;1133;-69
2023/01/07 06:04:25;;;;;;;;;;;10.00;99.90;;;;;;5079980;28;1399;-69
2023/01/07 06:06:51;;;;;;;;;;;10.00;99.90;;;;;;5079795;28;1000;-69
2023/01/07 06:09:17;;;;;;;;;;;10.00;99.90;;;;;;5078603;28;1926;-69
2023/01/07 06:11:42;;;;;;;;;;;10.00;99.90;;;;;;5079723;28;981;-69
2023/01/07 06:14:08;;;;;;;;;;;10.00;99.90;;;;;;5079331;28;1145;-69
2023/01/07 06:16:34;;;;;;;;;;;10.00;99.90;;;;;;5077995;28;1036;-69
2023/01/07 06:18:59;;;;;;;;;;;10.00;99.90;;;;;;5079717;28;993;-69
2023/01/07 06:21:25;;;;;;;;;;;10.00;99.90;;;;;;5079876;28;1027;-69
2023/01/07 06:23:51;;;;;;;;;;;10.00;99.90;;;;;;5078149;28;1076;-70
2023/01/07 06:26:17;;;;;;;;;;;10.00;99.90;;;;;;5060809;28;1137;-69
2023/01/07 06:28:42;;;;;;;;;;;10.00;99.90;;;;;;5060853;28;1910;-69
2023/01/07 06:31:09;;;;;;;;;;;10.00;99.90;;;;;;5078162;28;1067;-69
2023/01/07 06:33:36;;;;;;;;;;;10.00;99.90;;;;;;5079058;28;957;-69
2023/01/07 06:36:02;;;;;;;;;;;10.00;99.90;;;;;;5060641;28;1190;-69
2023/01/07 06:38:28;;;;;;;;;;;10.00;99.90;;;;;;5077668;28;958;-69
2023/01/07 06:40:54;;;;;;;;;;;10.00;99.90;;;;;;5061218;28;1166;-69
2023/01/07 06:43:19;;;;;;;;;;;10.10;99.90;;;;;;5060102;28;1099;-69
2023/01/07 06:45:45;;;;;;;;;;;10.00;99.90;;;;;;5059889;28;1873;-69
2023/01/07 06:48:11;;;;;;;;;;;10.00;99.90;;;;;;5060838;28;1914;-69
2023/01/07 06:50:36;;;;;;;;;;;10.00;99.90;;;;;;5078822;28;1192;-69
2023/01/07 06:53:02;;;;;;;;;;;10.00;99.90;;;;;;5077651;28;1435;-69
2023/01/07 06:55:28;;;;;;;;;;;10.00;99.90;;;;;;5060619;28;1311;-69
2023/01/07 06:57:53;;;;;;;;;;;10.00;99.90;;;;;;5079050;28;1068;-69
2023/01/07 07:00:19;;;;;;;;;;;10.10;99.90;;;;;;5077254;28;1017;-69
2023/01/07 07:02:45;;;;;;;;;;;10.10;99.90;;;;;;5078521;28;1177;-69
2023/01/07 07:05:10;;;;;;;;;;;10.00;99.90;;;;;;5078142;28;1008;-69
2023/01/07 07:07:36;;;;;;;;;;;10.00;99.90;;;;;;5078368;28;1048;-70
2023/01/07 07:10:06;;;;;;;;;;;10.10;99.90;;;;;;5061559;28;1913;-69
2023/01/07 07:12:32;;;;;;;;;;;10.00;99.90;;;;;;5078177;28;973;-69
2023/01/07 07:14:58;;;;;;;;;;;10.00;99.90;;;;;;5078426;28;1004;-69
2023/01/07 07:17:23;;;;;;;;;;;10.00;99.90;;;;;;5045728;28;1268;-69
2023/01/07 07:19:49;;;;;;;;;;;10.00;99.90;;;;;;5079789;28;1232;-69
2023/01/07 07:22:15;;;;;;;;;;;10.00;99.90;;;;;;5080464;28;1099;-69
2023/01/07 07:24:40;;;;;;;;;;;10.00;99.90;;;;;;5080730;28;1187;-69
2023/01/07 07:27:06;;;;;;;;;;;10.00;99.90;;;;;;5080094;28;1133;-69
2023/01/07 07:29:32;;;;;;;;;;;10.00;99.90;;;;;;5081652;28;1992;-69
2023/01/07 07:31:57;;;;;;;;;;;10.00;99.90;;;;;;5082914;28;1124;-70
2023/01/07 07:34:23;;;;;;;;;;;10.10;99.90;;;;;;5078569;28;1101;-69
2023/01/07 07:36:49;;;;;;;;;;;10.10;99.90;;;;;;5076779;28;1045;-69
2023/01/07 07:39:14;;;;;;;;;;;10.10;99.90;;;;;;5077852;28;863;-69
2023/01/07 07:41:40;;;;;;;;;;;10.10;99.90;;;;;;5077916;28;1148;-70
2023/01/07 07:44:08;;;;;;;;;;;10.10;99.90;;;;;;5060809;28;1293;-69
2023/01/07 07:46:33;;;;;;;;;;;10.20;99.90;;;;;;5077876;28;1125;-69
2023/01/07 07:48:59;;;;;;;;;;;10.20;99.90;;;;;;5059119;28;2003;-69
2023/01/07 07:51:25;;;;;;;;;;;10.20;99.90;;;;;;5077887;28;1301;-69
2023/01/07 07:53:50;;;;;;;;;;;10.20;99.90;;;;;;5078208;28;1138;-69
2023/01/07 07:56:16;;;;;;;;;;;10.20;99.90;;;;;;5077137;28;1276;-70
2023/01/07 07:58:42;;;;;;;;;;;10.20;99.90;;;;;;5077823;28;997;-69
2023/01/07 08:01:08;;;;;;;;;;;10.10;99.90;;;;;;5078810;28;1034;-69
2023/01/07 08:03:34;;;;;;;;;;;10.20;99.90;;;;;;5076897;28;1166;-69
2023/01/07 08:05:59;;;;;;;;;;;10.20;99.90;;;;;;5077869;28;1093;-69
2023/01/07 08:08:25;;;;;;;;;;;10.20;99.90;;;;;;5060670;28;1934;-69
2023/01/07 08:10:53;;;;;;;;;;;10.20;99.90;;;;;;5077283;28;1090;-69
2023/01/07 08:13:19;;;;;;;;;;;10.20;99.90;;;;;;5077227;28;1062;-69
2023/01/07 08:15:45;;;;;;;;;;;10.20;99.90;;;;;;5059623;28;1034;-69
2023/01/07 08:18:11;;;;;;;;;;;10.30;99.90;;;;;;5077418;28;1091;-69
2023/01/07 08:20:37;;;;;;;;;;;10.30;99.90;;;;;;5079442;28;1220;-69
2023/01/07 08:23:03;;;;;;;;;;;10.30;99.90;;;;;;5078674;28;1399;-69
2023/01/07 08:25:30;;;;;;;;;;;10.30;99.90;;;;;;5080177;28;1102;-69
2023/01/07 08:27:56;;;;;;;;;;;10.40;99.90;;;;;;5080271;28;1136;-69
2023/01/07 08:30:22;;;;;;;;;;;10.40;99.90;;;;;;5076213;28;1977;-69
2023/01/07 08:32:48;;;;;;;;;;;10.40;99.90;;;;;;5077586;28;1021;-69
2023/01/07 08:35:15;;;;;;;;;;;10.40;99.90;;;;;;5077958;28;974;-69
2023/01/07 08:37:41;;;;;;;;;;;10.40;99.90;;;;;;5076339;28;1021;-69
2023/01/07 08:40:07;;;;;;;;;;;10.40;99.90;;;;;;5059883;28;1099;-69
2023/01/07 08:42:33;;;;;;;;;;;10.40;99.90;;;;;;5060305;28;1983;-69
2023/01/07 08:44:58;;;;;;;;;;;10.40;99.90;;;;;;5077150;28;1080;-69
2023/01/07 08:47:26;;;;;;;;;;;10.40;99.90;;;;;;5079118;28;1054;-69
2023/01/07 08:49:53;;;;;;;;;;;10.30;99.90;;;;;;5046993;28;2011;-69
2023/01/07 08:52:20;;;;;;;;;;;10.40;99.90;;;;;;5081082;28;1544;-69
2023/01/07 08:54:46;;;;;;;;;;;10.40;99.90;;;;;;5081181;28;978;-69
2023/01/07 08:57:12;;;;;;;;;;;10.40;99.90;;;;;;5079937;28;1123;-69
2023/01/07 08:59:39;;;;;;;;;;;10.40;99.90;;;;;;5080001;28;1021;-69
2023/01/07 09:02:09;;;;;;;;;;;10.40;99.90;;;;;;5080929;28;966;-69
2023/01/07 09:04:35;;;;;;;;;;;10.50;99.90;;;;;;5080215;28;1348;-69
2023/01/07 09:07:01;;;;;;;;;;;10.50;99.90;;;;;;5062328;28;1084;-69
2023/01/07 09:09:26;;;;;;;;;;;10.40;99.90;;;;;;5081581;28;1969;-69
2023/01/07 09:11:52;;;;;;;;;;;10.50;99.90;;;;;;5061603;28;1036;-70
2023/01/07 09:14:17;;;;;;;;;;;10.50;99.90;;;;;;5080120;28;1134;-70
2023/01/07 09:16:43;;;;;;;;;;;10.60;99.90;;;;;;5080945;28;1031;-69
2023/01/07 09:19:09;;;;;;;;;;;10.70;99.90;;;;;;5079713;28;1069;-69
2023/01/07 09:21:34;;;;;;;;;;;10.60;99.90;;;;;;5083062;28;1143;-69
2023/01/07 09:24:00;;;;;;;;;;;10.60;99.90;;;;;;5065482;28;1133;-70
2023/01/07 09:26:26;;;;;;;;;;;10.50;99.90;;;;;;5082457;28;1128;-69
2023/01/07 09:28:51;;;;;;;;;;;10.50;99.90;;;;;;5082416;28;1973;-69
2023/01/07 09:31:17;;;;;;;;;;;10.50;99.90;;;;;;5084642;28;974;-69
2023/01/07 09:33:43;;;;;;;;;;;10.50;99.90;;;;;;5081953;28;1063;-69
2023/01/07 09:36:08;;;;;;;;;;;10.50;99.90;;;;;;5061947;28;1025;-69
2023/01/07 09:38:34;;;;;;;;;;;10.50;99.90;;;;;;5080288;28;993;-69
2023/01/07 09:41:00;;;;;;;;;;;10.60;99.90;;;;;;5079789;28;1051;-69
2023/01/07 09:43:26;;;;;;;;;;;10.50;99.90;;;;;;5081070;28;1185;-69
2023/01/07 09:45:54;;;;;;;;;;;10.60;99.90;;;;;;5081483;28;1219;-69
2023/01/07 09:48:23;;;;;;;;;;;10.70;99.90;;;;;;5079314;28;1906;-69
2023/01/07 09:50:56;;;;;;;;;;;10.60;99.90;;;;;;5079552;28;1351;-69
2023/01/07 09:53:25;;;;;;;;;;;10.60;99.90;;;;;;5080469;28;1052;-69
2023/01/07 09:55:51;;;;;;;;;;;10.50;99.90;;;;;;5079097;28;1071;-69
2023/01/07 09:58:18;;;;;;;;;;;10.50;99.90;;;;;;5078221;28;1013;-69
2023/01/07 10:00:53;;;;;;;;;;;10.60;99.90;;;;;;5082607;28;1127;-69
2023/01/07 10:03:31;;;;;;;;;;;10.70;99.90;;;;;;5062467;28;1127;-69
2023/01/07 10:06:03;;;;;;;;;;;10.70;99.90;;;;;;5079911;28;969;-69
2023/01/07 10:08:35;;;;;;;;;;;10.70;99.90;;;;;;5078854;28;1930;-69
2023/01/07 10:11:16;;;;;;;;;;;10.70;99.90;;;;;;5061492;28;1020;-69
2023/01/07 10:13:47;;;;;;;;;;;10.80;99.90;;;;;;5079204;28;1028;-69
2023/01/07 10:16:13;;;;;;;;;;;10.80;99.90;;;;;;5078303;28;1005;-69
2023/01/07 10:18:39;;;;;;;;;;;10.80;99.90;;;;;;5079962;28;1024;-69
2023/01/07 10:21:13;;;;;;;;;;;10.80;99.90;;;;;;5078720;28;996;-69
2023/01/07 10:23:41;;;;;;;;;;;10.70;99.90;;;;;;5079303;28;978;-69
2023/01/07 10:26:15;;;;;;;;;;;10.70;99.90;;;;;;5078567;28;999;-69
2023/01/07 10:28:43;;;;;;;;;;;10.80;99.90;;;;;;5078500;28;1914;-69
2023/01/07 10:31:15;;;;;;;;;;;10.80;99.90;;;;;;5079186;28;970;-69
2023/01/07 10:33:40;;;;;;;;;;;10.90;99.90;;;;;;5060689;28;1096;-69
2023/01/07 10:36:24;;;;;;;;;;;11.00;99.90;;;;;;5044852;28;1041;-69
2023/01/07 10:38:54;;;;;;;;;;;11.00;99.90;;;;;;5077572;28;1099;-69
2023/01/07 10:41:25;;;;;;;;;;;11.00;99.90;;;;;;5060428;28;1045;-69
2023/01/07 10:44:00;;;;;;;;;;;11.10;99.90;;;;;;5078429;28;1012;-69
2023/01/07 10:46:26;;;;;;;;;;;11.30;99.90;;;;;;5079351;28;1051;-69
2023/01/07 10:49:03;;;;;;;;;;;11.60;99.90;;;;;;5078201;28;1926;-69
2023/01/07 10:51:40;;;;;;;;;;;11.60;99.90;;;;;;5077907;28;1316;-69
2023/01/07 10:54:17;;;;;;;;;;;11.30;99.90;;;;;;5079000;28;1005;-69
2023/01/07 10:56:48;;;;;;;;;;;11.20;99.90;;;;;;5057004;28;1138;-69
2023/01/07 10:59:16;;;;;;;;;;;11.20;99.90;;;;;;5058119;28;977;-69
2023/01/07 11:01:44;;;;;;;;;;;11.00;99.90;;;;;;5058664;28;1052;-69
2023/01/07 11:04:11;;;;;;;;;;;11.00;99.90;;;;;;5058283;28;1336;-69
2023/01/07 11:06:39;;;;;;;;;;;11.00;99.90;;;;;;5057870;28;1036;-69
2023/01/07 11:09:07;;;;;;;;;;;11.00;99.90;;;;;;5056406;28;1917;-69
2023/01/07 11:11:34;;;;;;;;;;;10.90;99.90;;;;;;5057388;28;1131;-69
2023/01/07 11:14:03;;;;;;;;;;;10.90;99.90;;;;;;5058061;28;1013;-69
2023/01/07 11:16:32;;;;;;;;;;;10.90;99.90;;;;;;5058557;28;1029;-69
2023/01/07 11:19:04;;;;;;;;;;;10.90;99.90;;;;;;5057013;28;1039;-70
2023/01/07 11:21:33;;;;;;;;;;;10.90;99.90;;;;;;5057021;28;1063;-69
2023/01/07 11:24:00;;;;;;;;;;;10.90;99.90;;;;;;5058486;28;1042;-69
2023/01/07 11:26:26;;;;;;;;;;;10.90;99.90;;;;;;5056770;28;1041;-69
2023/01/07 11:28:53;;;;;;;;;;;10.90;99.90;;;;;;5057857;28;1914;-69
2023/01/07 11:31:19;;;;;;;;;;;10.90;99.90;;;;;;5056452;28;1212;-69
2023/01/07 11:33:47;;;;;;;;;;;11.00;99.90;;;;;;5057434;28;1021;-69
2023/01/07 11:36:13;;;;;;;;;;;10.90;99.90;;;;;;5057981;28;988;-69
2023/01/07 11:38:38;;;;;;;;;;;11.00;99.90;;;;;;5058627;28;1047;-69
2023/01/07 11:41:06;;;;;;;;;;;11.00;99.90;;;;;;5057029;28;1028;-70
2023/01/07 11:43:33;;;;;;;;;;;11.00;99.90;;;;;;5058126;28;1032;-69
2023/01/07 11:46:03;;;;;;;;;;;11.00;99.90;;;;;;5058720;28;1052;-70
2023/01/07 11:48:30;;;;;;;;;;;11.10;99.90;;;;;;5057977;28;1905;-70
2023/01/07 11:50:57;;;;;;;;;;;11.20;99.90;;;;;;5056843;28;1303;-70
2023/01/07 11:53:29;;;;;;;;;;;11.10;99.90;;;;;;5057481;28;1000;-69
2023/01/07 11:55:56;;;;;;;;;;;11.10;99.90;;;;;;5055689;28;1118;-69
2023/01/07 11:58:22;;;;;;;;;;;11.10;99.90;;;;;;5057323;28;970;-69
2023/01/07 12:01:01;;;;;;;;;;;11.10;99.90;;;;;;5058560;28;1072;-70
2023/01/07 12:03:27;;;;;;;;;;;11.10;99.90;;;;;;5058552;28;1102;-69
2023/01/07 12:05:56;;;;;;;;;;;11.10;99.90;;;;;;5060048;28;1290;-69
2023/01/07 12:08:22;;;;;;;;;;;11.10;99.90;;;;;;5059818;28;1910;-69
2023/01/07 12:10:55;;;;;;;;;;;11.10;99.90;;;;;;5059724;28;1112;-69
2023/01/07 12:13:23;;;;;;;;;;;11.10;99.90;;;;;;5059799;28;1108;-69
2023/01/07 12:15:52;;;;;;;;;;;11.10;99.90;;;;;;5060287;28;1139;-69
2023/01/07 12:18:19;;;;;;;;;;;11.10;99.90;;;;;;5061910;28;1168;-70
2023/01/07 12:20:54;;;;;;;;;;;11.00;99.90;;;;;;5057414;28;1084;-70
2023/01/07 12:23:27;;;;;;;;;;;11.10;99.90;;;;;;5060760;28;1128;-69
2023/01/07 12:26:03;;;;;;;;;;;11.10;99.90;;;;;;5063867;28;1097;-70
2023/01/07 12:28:49;;;;;;;;;;;11.10;99.90;;;;;;5062299;28;2000;-70
2023/01/07 12:31:35;;;;;;;;;;;11.10;99.90;;;;;;5063783;28;1061;-70
2023/01/07 12:34:06;;;;;;;;;;;11.10;99.90;;;;;;5064263;28;1159;-70
2023/01/07 12:36:42;;;;;;;;;;;11.20;99.90;;;;;;5063922;28;1143;-70
2023/01/07 12:39:12;;;;;;;;;;;11.10;99.90;;;;;;5061579;28;1005;-70
2023/01/07 12:41:40;;;;;;;;;;;11.20;99.90;;;;;;5063887;28;1127;-70
2023/01/07 12:44:13;;;;;;;;;;;11.20;99.90;;;;;;5060772;28;1089;-70
2023/01/07 12:46:40;;;;;;;;;;;11.30;99.90;;;;;;5061009;28;1226;-70
2023/01/07 12:49:12;;;;;;;;;;;11.30;99.90;;;;;;5060549;28;1942;-70
2023/01/07 12:51:41;;;;;;;;;;;11.30;99.90;;;;;;5060272;28;1347;-70
2023/01/07 12:54:21;;;;;;;;;;;11.40;99.90;;;;;;5061071;28;898;-70
2023/01/07 12:56:52;;;;;;;;;;;11.40;99.90;;;;;;5059384;28;1395;-70
2023/01/07 12:59:23;;;;;;;;;;;11.60;99.90;;;;;;5062955;28;1069;-70
2023/01/07 13:01:51;;;;;;;;;;;12.10;99.90;;;;;;5064557;28;1004;-70
2023/01/07 13:04:20;;;;;;;;;;;12.40;99.90;;;;;;5063127;28;1127;-70
2023/01/07 13:06:50;;;;;;;;;;;12.70;99.90;;;;;;5063133;28;977;-70
2023/01/07 13:09:21;;;;;;;;;;;12.90;99.90;;;;;;5063638;28;1976;-70
2023/01/07 13:14:37;;;;;;;;;;;13.10;99.90;;;;;;5060752;28;1080;-70
2023/01/07 13:17:13;;;;;;;;;;;13.30;99.90;;;;;;5060736;28;1306;-70
2023/01/07 13:19:38;;;;;;;;;;;13.40;99.90;;;;;;5060155;28;1084;-70
2023/01/07 13:22:04;;;;;;;;;;;13.70;99.90;;;;;;5061031;28;1255;-70
2023/01/07 13:24:39;;;;;;;;;;;14.00;99.90;;;;;;5060740;28;1024;-70
2023/01/07 13:27:08;;;;;;;;;;;14.10;99.90;;;;;;5060791;28;1298;-70
2023/01/07 13:29:40;;;;;;;;;;;14.00;99.90;;;;;;5061321;28;1977;-70
2023/01/07 13:32:14;;;;;;;;;;;13.80;99.90;;;;;;5059153;28;1140;-70
2023/01/07 13:34:43;;;;;;;;;;;13.50;99.90;;;;;;5059249;28;976;-70
2023/01/07 13:37:15;;;;;;;;;;;13.40;99.90;;;;;;5060073;28;977;-70
2023/01/07 13:39:53;;;;;;;;;;;13.20;99.90;;;;;;5057927;28;1914;-70
2023/01/07 13:42:28;;;;;;;;;;;12.90;99.90;;;;;;5060028;28;1014;-70
2023/01/07 13:45:00;;;;;;;;;;;12.80;99.90;;;;;;5059314;28;992;-70
2023/01/07 13:47:35;;;;;;;;;;;12.60;99.90;;;;;;5058058;28;1128;-70
2023/01/07 13:50:01;;;;;;;;;;;12.50;99.90;;;;;;5059539;28;1933;-70
2023/01/07 13:52:29;;;;;;;;;;;12.60;99.90;;;;;;5060227;28;1284;-70
2023/01/07 13:54:56;;;;;;;;;;;12.60;99.90;;;;;;5059519;28;996;-70
2023/01/07 13:57:22;;;;;;;;;;;12.70;99.90;;;;;;5079577;28;1198;-70
2023/01/07 13:59:49;;;;;;;;;;;12.60;99.90;;;;;;5062497;28;2151;-70
2023/01/07 14:02:17;;;;;;;;;;;12.50;99.90;;;;;;5061818;28;2104;-69
2023/01/07 14:05:01;;;;;;;;;;;12.30;99.90;;;;;;5080799;28;1112;-70
2023/01/07 14:07:27;;;;;;;;;;;12.10;99.90;;;;;;5080643;28;1122;-70
2023/01/07 14:09:55;;;;;;;;;;;12.00;99.90;;;;;;5080964;28;1931;-70
2023/01/07 14:12:30;;;;;;;;;;;11.80;99.90;;;;;;5081937;28;1120;-70
2023/01/07 14:15:06;;;;;;;;;;;11.70;99.90;;;;;;5079547;28;1093;-70
2023/01/07 14:17:45;;;;;;;;;;;11.70;99.90;;;;;;5082085;28;1243;-70
2023/01/07 14:20:16;;;;;;;;;;;11.50;99.90;;;;;;5083352;28;1159;-70
2023/01/07 14:22:42;;;;;;;;;;;11.40;99.90;;;;;;5078560;28;1064;-70
2023/01/07 14:25:11;;;;;;;;;;;11.30;99.90;;;;;;5078550;28;1083;-69
2023/01/07 14:27:51;;;;;;;;;;;11.30;99.90;;;;;;5079450;28;1017;-70
2023/01/07 14:30:24;;;;;;;;;;;11.20;99.90;;;;;;5079104;28;1933;-70
2023/01/07 14:32:55;;;;;;;;;;;11.20;99.90;;;;;;5076856;28;1203;-70
2023/01/07 14:35:24;;;;;;;;;;;11.10;99.90;;;;;;5079392;28;1088;-70
2023/01/07 14:37:50;;;;;;;;;;;11.10;99.90;;;;;;5062404;28;1256;-70
2023/01/07 14:40:25;;;;;;;;;;;11.00;99.90;;;;;;5079726;28;1120;-70
2023/01/07 14:42:52;;;;;;;;;;;11.00;99.90;;;;;;5079187;28;1154;-70
2023/01/07 14:45:37;;;;;;;;;;;10.90;99.90;;;;;;5080410;28;1088;-70